sensor_id;sensor_type;location;lat;lon;timestamp;P1;durP1;ratioP1;P2;durP2;ratioP2
23561;SDS011;11959;49.418;8.728;2022-12-07T00:01:17;10.25;;;6.60;;
23561;SDS011;11959;49.418;8.728;2022-12-07T00:03:45;12.55;;;7.53;;
23561;SDS011;11959;49.418;8.728;2022-12-07T00:06:13;12.57;;;7.10;;
23561;SDS011;11959;49.418;8.728;2022-12-07T00:08:40;12.15;;;7.03;;
23561;SDS011;11959;49.418;8.728;2022-12-07T00:11:07;13.10;;;7.90;;
23561;SDS011;11959;49.418;8.728;2022-12-07T00:13:35;12.40;;;7.38;;
23561;SDS011;11959;49.418;8.728;2022-12-07T00:16:01;11.45;;;7.40;;
23561;SDS011;11959;49.418;8.728;2022-12-07T00:18:27;10.98;;;6.88;;
23561;SDS011;11959;49.418;8.728;2022-12-07T00:20:53;13.45;;;7.38;;
23561;SDS011;11959;49.418;8.728;2022-12-07T00:23:29;12.02;;;6.90;;
23561;SDS011;11959;49.418;8.728;2022-12-07T00:25:55;12.65;;;6.88;;
23561;SDS011;11959;49.418;8.728;2022-12-07T00:28:21;12.48;;;7.35;;
23561;SDS011;11959;49.418;8.728;2022-12-07T00:30:46;11.80;;;7.22;;
23561;SDS011;11959;49.418;8.728;2022-12-07T00:33:12;13.50;;;7.78;;
23561;SDS011;11959;49.418;8.728;2022-12-07T00:35:38;13.70;;;7.55;;
23561;SDS011;11959;49.418;8.728;2022-12-07T00:38:03;13.00;;;7.20;;
23561;SDS011;11959;49.418;8.728;2022-12-07T00:40:29;11.30;;;7.55;;
23561;SDS011;11959;49.418;8.728;2022-12-07T00:42:55;12.27;;;6.95;;
23561;SDS011;11959;49.418;8.728;2022-12-07T00:45:20;12.48;;;7.22;;
23561;SDS011;11959;49.418;8.728;2022-12-07T00:47:46;10.57;;;7.13;;
23561;SDS011;11959;49.418;8.728;2022-12-07T00:50:11;10.80;;;6.97;;
23561;SDS011;11959;49.418;8.728;2022-12-07T00:52:37;11.63;;;7.07;;
23561;SDS011;11959;49.418;8.728;2022-12-07T00:55:03;10.98;;;7.20;;
23561;SDS011;11959;49.418;8.728;2022-12-07T00:57:30;10.93;;;6.80;;
23561;SDS011;11959;49.418;8.728;2022-12-07T00:59:55;11.93;;;6.63;;
23561;SDS011;11959;49.418;8.728;2022-12-07T01:02:22;11.25;;;6.75;;
23561;SDS011;11959;49.418;8.728;2022-12-07T01:04:48;11.88;;;7.25;;
23561;SDS011;11959;49.418;8.728;2022-12-07T01:07:14;12.32;;;7.43;;
23561;SDS011;11959;49.418;8.728;2022-12-07T01:09:40;11.30;;;6.90;;
23561;SDS011;11959;49.418;8.728;2022-12-07T01:12:05;11.05;;;7.47;;
23561;SDS011;11959;49.418;8.728;2022-12-07T01:14:31;14.07;;;8.05;;
23561;SDS011;11959;49.418;8.728;2022-12-07T01:16:57;13.55;;;7.80;;
23561;SDS011;11959;49.418;8.728;2022-12-07T01:19:22;12.82;;;8.05;;
23561;SDS011;11959;49.418;8.728;2022-12-07T01:21:48;10.90;;;6.75;;
23561;SDS011;11959;49.418;8.728;2022-12-07T01:24:14;13.65;;;7.82;;
23561;SDS011;11959;49.418;8.728;2022-12-07T01:26:39;11.30;;;7.32;;
23561;SDS011;11959;49.418;8.728;2022-12-07T01:29:06;13.32;;;7.40;;
23561;SDS011;11959;49.418;8.728;2022-12-07T01:31:31;12.07;;;7.25;;
23561;SDS011;11959;49.418;8.728;2022-12-07T01:33:58;12.50;;;7.82;;
23561;SDS011;11959;49.418;8.728;2022-12-07T01:36:28;14.50;;;8.25;;
23561;SDS011;11959;49.418;8.728;2022-12-07T01:38:56;13.70;;;8.13;;
23561;SDS011;11959;49.418;8.728;2022-12-07T01:41:24;15.73;;;9.02;;
23561;SDS011;11959;49.418;8.728;2022-12-07T01:44:09;13.45;;;7.90;;
23561;SDS011;11959;49.418;8.728;2022-12-07T01:46:55;15.80;;;8.95;;
23561;SDS011;11959;49.418;8.728;2022-12-07T01:51:56;15.00;;;8.68;;
23561;SDS011;11959;49.418;8.728;2022-12-07T01:54:32;14.00;;;8.02;;
23561;SDS011;11959;49.418;8.728;2022-12-07T01:56:59;12.48;;;7.85;;
23561;SDS011;11959;49.418;8.728;2022-12-07T01:59:26;15.07;;;9.15;;
23561;SDS011;11959;49.418;8.728;2022-12-07T02:01:52;14.18;;;8.32;;
23561;SDS011;11959;49.418;8.728;2022-12-07T02:04:20;15.02;;;8.52;;
23561;SDS011;11959;49.418;8.728;2022-12-07T02:06:47;16.85;;;8.85;;
23561;SDS011;11959;49.418;8.728;2022-12-07T02:09:13;12.63;;;8.35;;
23561;SDS011;11959;49.418;8.728;2022-12-07T02:11:39;13.10;;;7.95;;
23561;SDS011;11959;49.418;8.728;2022-12-07T02:14:05;13.85;;;8.82;;
23561;SDS011;11959;49.418;8.728;2022-12-07T02:23:04;13.55;;;8.18;;
23561;SDS011;11959;49.418;8.728;2022-12-07T02:26:19;12.98;;;7.95;;
23561;SDS011;11959;49.418;8.728;2022-12-07T02:31:18;14.90;;;8.35;;
23561;SDS011;11959;49.418;8.728;2022-12-07T02:33:49;14.27;;;8.55;;
23561;SDS011;11959;49.418;8.728;2022-12-07T02:36:38;13.00;;;7.88;;
23561;SDS011;11959;49.418;8.728;2022-12-07T02:39:11;10.15;;;6.07;;
23561;SDS011;11959;49.418;8.728;2022-12-07T02:41:44;12.30;;;7.85;;
23561;SDS011;11959;49.418;8.728;2022-12-07T02:44:15;13.68;;;8.07;;
23561;SDS011;11959;49.418;8.728;2022-12-07T02:46:49;14.93;;;8.23;;
23561;SDS011;11959;49.418;8.728;2022-12-07T02:49:43;14.00;;;7.93;;
23561;SDS011;11959;49.418;8.728;2022-12-07T02:52:09;16.08;;;9.35;;
23561;SDS011;11959;49.418;8.728;2022-12-07T02:54:34;13.88;;;7.38;;
23561;SDS011;11959;49.418;8.728;2022-12-07T02:59:30;12.88;;;7.72;;
23561;SDS011;11959;49.418;8.728;2022-12-07T03:10:50;13.73;;;8.05;;
23561;SDS011;11959;49.418;8.728;2022-12-07T03:13:35;10.07;;;6.60;;
23561;SDS011;11959;49.418;8.728;2022-12-07T03:16:20;12.93;;;7.53;;
23561;SDS011;11959;49.418;8.728;2022-12-07T03:18:56;13.82;;;8.52;;
23561;SDS011;11959;49.418;8.728;2022-12-07T03:21:26;13.77;;;7.75;;
23561;SDS011;11959;49.418;8.728;2022-12-07T03:24:05;13.10;;;7.65;;
23561;SDS011;11959;49.418;8.728;2022-12-07T03:26:35;12.02;;;7.63;;
23561;SDS011;11959;49.418;8.728;2022-12-07T03:29:08;12.38;;;7.78;;
23561;SDS011;11959;49.418;8.728;2022-12-07T03:31:43;10.80;;;7.18;;
23561;SDS011;11959;49.418;8.728;2022-12-07T03:36:47;12.48;;;7.18;;
23561;SDS011;11959;49.418;8.728;2022-12-07T03:42:11;12.05;;;7.05;;
23561;SDS011;11959;49.418;8.728;2022-12-07T03:44:37;12.30;;;7.32;;
23561;SDS011;11959;49.418;8.728;2022-12-07T03:47:05;12.20;;;7.55;;
23561;SDS011;11959;49.418;8.728;2022-12-07T03:49:43;12.18;;;7.60;;
23561;SDS011;11959;49.418;8.728;2022-12-07T03:57:36;10.20;;;6.30;;
23561;SDS011;11959;49.418;8.728;2022-12-07T04:00:05;13.15;;;8.30;;
23561;SDS011;11959;49.418;8.728;2022-12-07T04:02:32;12.75;;;7.22;;
23561;SDS011;11959;49.418;8.728;2022-12-07T04:04:59;10.50;;;6.72;;
23561;SDS011;11959;49.418;8.728;2022-12-07T04:07:24;12.35;;;7.45;;
23561;SDS011;11959;49.418;8.728;2022-12-07T04:09:50;12.48;;;7.47;;
23561;SDS011;11959;49.418;8.728;2022-12-07T04:12:16;10.35;;;6.97;;
23561;SDS011;11959;49.418;8.728;2022-12-07T04:14:41;14.25;;;7.95;;
23561;SDS011;11959;49.418;8.728;2022-12-07T04:17:08;10.48;;;6.63;;
23561;SDS011;11959;49.418;8.728;2022-12-07T04:19:33;13.10;;;7.25;;
23561;SDS011;11959;49.418;8.728;2022-12-07T04:22:02;10.90;;;6.82;;
23561;SDS011;11959;49.418;8.728;2022-12-07T04:24:29;11.48;;;7.03;;
23561;SDS011;11959;49.418;8.728;2022-12-07T04:26:55;15.27;;;7.82;;
23561;SDS011;11959;49.418;8.728;2022-12-07T04:29:21;10.95;;;6.82;;
23561;SDS011;11959;49.418;8.728;2022-12-07T04:31:47;13.52;;;7.57;;
23561;SDS011;11959;49.418;8.728;2022-12-07T04:34:13;11.63;;;7.22;;
23561;SDS011;11959;49.418;8.728;2022-12-07T04:36:39;11.70;;;7.28;;
23561;SDS011;11959;49.418;8.728;2022-12-07T04:39:05;11.75;;;7.60;;
23561;SDS011;11959;49.418;8.728;2022-12-07T04:41:32;12.52;;;7.20;;
23561;SDS011;11959;49.418;8.728;2022-12-07T04:43:59;11.52;;;6.90;;
23561;SDS011;11959;49.418;8.728;2022-12-07T04:46:27;9.93;;;6.40;;
23561;SDS011;11959;49.418;8.728;2022-12-07T04:48:54;12.60;;;6.32;;
23561;SDS011;11959;49.418;8.728;2022-12-07T04:51:25;10.38;;;6.15;;
23561;SDS011;11959;49.418;8.728;2022-12-07T04:53:52;11.13;;;6.45;;
23561;SDS011;11959;49.418;8.728;2022-12-07T04:56:19;11.35;;;6.35;;
23561;SDS011;11959;49.418;8.728;2022-12-07T04:58:45;12.05;;;7.38;;
23561;SDS011;11959;49.418;8.728;2022-12-07T05:01:12;11.75;;;6.55;;
23561;SDS011;11959;49.418;8.728;2022-12-07T05:03:39;13.70;;;7.95;;
23561;SDS011;11959;49.418;8.728;2022-12-07T05:06:05;13.27;;;7.72;;
23561;SDS011;11959;49.418;8.728;2022-12-07T05:08:32;12.68;;;7.05;;
23561;SDS011;11959;49.418;8.728;2022-12-07T05:10:58;13.45;;;7.70;;
23561;SDS011;11959;49.418;8.728;2022-12-07T05:13:25;12.43;;;8.00;;
23561;SDS011;11959;49.418;8.728;2022-12-07T05:15:51;12.35;;;7.28;;
23561;SDS011;11959;49.418;8.728;2022-12-07T05:18:16;12.20;;;7.65;;
23561;SDS011;11959;49.418;8.728;2022-12-07T05:20:42;12.95;;;8.25;;
23561;SDS011;11959;49.418;8.728;2022-12-07T05:23:09;12.57;;;8.18;;
23561;SDS011;11959;49.418;8.728;2022-12-07T05:25:35;12.25;;;8.50;;
23561;SDS011;11959;49.418;8.728;2022-12-07T05:28:01;12.05;;;7.80;;
23561;SDS011;11959;49.418;8.728;2022-12-07T05:30:27;12.48;;;7.90;;
23561;SDS011;11959;49.418;8.728;2022-12-07T05:32:54;11.80;;;8.20;;
23561;SDS011;11959;49.418;8.728;2022-12-07T05:35:20;11.32;;;7.80;;
23561;SDS011;11959;49.418;8.728;2022-12-07T05:37:46;11.38;;;7.70;;
23561;SDS011;11959;49.418;8.728;2022-12-07T05:40:12;13.00;;;7.88;;
23561;SDS011;11959;49.418;8.728;2022-12-07T05:42:39;12.45;;;7.82;;
23561;SDS011;11959;49.418;8.728;2022-12-07T05:45:05;12.25;;;7.57;;
23561;SDS011;11959;49.418;8.728;2022-12-07T05:47:31;11.52;;;7.78;;
23561;SDS011;11959;49.418;8.728;2022-12-07T05:49:57;12.02;;;7.75;;
23561;SDS011;11959;49.418;8.728;2022-12-07T05:52:23;12.23;;;7.32;;
23561;SDS011;11959;49.418;8.728;2022-12-07T05:54:49;11.85;;;7.20;;
23561;SDS011;11959;49.418;8.728;2022-12-07T05:57:14;10.43;;;6.80;;
23561;SDS011;11959;49.418;8.728;2022-12-07T05:59:40;11.52;;;7.60;;
23561;SDS011;11959;49.418;8.728;2022-12-07T06:02:13;13.85;;;8.48;;
23561;SDS011;11959;49.418;8.728;2022-12-07T06:04:40;17.35;;;10.43;;
23561;SDS011;11959;49.418;8.728;2022-12-07T06:07:09;15.60;;;10.27;;
23561;SDS011;11959;49.418;8.728;2022-12-07T06:09:37;15.90;;;9.10;;
23561;SDS011;11959;49.418;8.728;2022-12-07T06:12:03;18.02;;;10.57;;
23561;SDS011;11959;49.418;8.728;2022-12-07T06:14:48;12.27;;;8.48;;
23561;SDS011;11959;49.418;8.728;2022-12-07T06:17:14;16.63;;;9.77;;
23561;SDS011;11959;49.418;8.728;2022-12-07T06:19:40;17.00;;;9.40;;
23561;SDS011;11959;49.418;8.728;2022-12-07T06:22:06;13.82;;;9.23;;
23561;SDS011;11959;49.418;8.728;2022-12-07T06:24:32;15.23;;;8.57;;
23561;SDS011;11959;49.418;8.728;2022-12-07T06:26:58;13.95;;;8.75;;
23561;SDS011;11959;49.418;8.728;2022-12-07T06:29:24;12.60;;;8.07;;
23561;SDS011;11959;49.418;8.728;2022-12-07T06:31:50;14.45;;;8.30;;
23561;SDS011;11959;49.418;8.728;2022-12-07T06:34:17;11.10;;;7.53;;
23561;SDS011;11959;49.418;8.728;2022-12-07T06:36:44;11.98;;;7.35;;
23561;SDS011;11959;49.418;8.728;2022-12-07T06:39:10;12.40;;;7.30;;
23561;SDS011;11959;49.418;8.728;2022-12-07T06:41:37;13.52;;;8.02;;
23561;SDS011;11959;49.418;8.728;2022-12-07T06:44:05;14.75;;;8.40;;
23561;SDS011;11959;49.418;8.728;2022-12-07T06:46:32;12.55;;;8.40;;
23561;SDS011;11959;49.418;8.728;2022-12-07T06:48:57;13.88;;;8.05;;
23561;SDS011;11959;49.418;8.728;2022-12-07T06:51:23;12.02;;;7.95;;
23561;SDS011;11959;49.418;8.728;2022-12-07T06:53:49;13.23;;;8.43;;
23561;SDS011;11959;49.418;8.728;2022-12-07T06:56:15;15.70;;;8.93;;
23561;SDS011;11959;49.418;8.728;2022-12-07T06:58:41;12.95;;;8.10;;
23561;SDS011;11959;49.418;8.728;2022-12-07T07:01:13;11.90;;;7.05;;
23561;SDS011;11959;49.418;8.728;2022-12-07T07:03:41;11.75;;;7.20;;
23561;SDS011;11959;49.418;8.728;2022-12-07T07:06:08;11.85;;;7.68;;
23561;SDS011;11959;49.418;8.728;2022-12-07T07:08:35;15.30;;;8.43;;
23561;SDS011;11959;49.418;8.728;2022-12-07T07:11:01;13.88;;;8.52;;
23561;SDS011;11959;49.418;8.728;2022-12-07T07:13:27;13.00;;;7.78;;
23561;SDS011;11959;49.418;8.728;2022-12-07T07:15:53;14.15;;;9.20;;
23561;SDS011;11959;49.418;8.728;2022-12-07T07:18:19;13.27;;;8.38;;
23561;SDS011;11959;49.418;8.728;2022-12-07T07:20:45;14.70;;;8.77;;
23561;SDS011;11959;49.418;8.728;2022-12-07T07:23:10;13.38;;;7.88;;
23561;SDS011;11959;49.418;8.728;2022-12-07T07:25:36;14.57;;;8.98;;
23561;SDS011;11959;49.418;8.728;2022-12-07T07:28:02;15.50;;;9.07;;
23561;SDS011;11959;49.418;8.728;2022-12-07T07:30:27;15.35;;;8.57;;
23561;SDS011;11959;49.418;8.728;2022-12-07T07:33:00;14.38;;;7.88;;
23561;SDS011;11959;49.418;8.728;2022-12-07T07:35:27;14.70;;;9.18;;
23561;SDS011;11959;49.418;8.728;2022-12-07T07:37:54;12.80;;;8.30;;
23561;SDS011;11959;49.418;8.728;2022-12-07T07:40:20;14.52;;;8.45;;
23561;SDS011;11959;49.418;8.728;2022-12-07T07:42:49;13.18;;;8.40;;
23561;SDS011;11959;49.418;8.728;2022-12-07T07:45:16;15.30;;;8.52;;
23561;SDS011;11959;49.418;8.728;2022-12-07T07:47:42;14.40;;;8.50;;
23561;SDS011;11959;49.418;8.728;2022-12-07T07:50:08;15.50;;;8.77;;
23561;SDS011;11959;49.418;8.728;2022-12-07T07:52:34;14.65;;;9.10;;
23561;SDS011;11959;49.418;8.728;2022-12-07T07:55:00;12.50;;;8.27;;
23561;SDS011;11959;49.418;8.728;2022-12-07T07:57:26;12.50;;;8.43;;
23561;SDS011;11959;49.418;8.728;2022-12-07T07:59:52;14.63;;;8.85;;
23561;SDS011;11959;49.418;8.728;2022-12-07T08:02:18;13.60;;;8.98;;
23561;SDS011;11959;49.418;8.728;2022-12-07T08:04:45;13.57;;;8.68;;
23561;SDS011;11959;49.418;8.728;2022-12-07T08:07:11;14.25;;;8.95;;
23561;SDS011;11959;49.418;8.728;2022-12-07T08:09:37;16.75;;;9.65;;
23561;SDS011;11959;49.418;8.728;2022-12-07T08:12:03;14.90;;;8.65;;
23561;SDS011;11959;49.418;8.728;2022-12-07T08:14:29;14.60;;;8.55;;
23561;SDS011;11959;49.418;8.728;2022-12-07T08:16:55;15.85;;;9.82;;
23561;SDS011;11959;49.418;8.728;2022-12-07T08:19:21;15.38;;;8.90;;
23561;SDS011;11959;49.418;8.728;2022-12-07T08:21:47;15.32;;;9.20;;
23561;SDS011;11959;49.418;8.728;2022-12-07T08:24:12;16.02;;;9.43;;
23561;SDS011;11959;49.418;8.728;2022-12-07T08:26:39;16.13;;;8.48;;
23561;SDS011;11959;49.418;8.728;2022-12-07T08:29:05;16.77;;;9.23;;
23561;SDS011;11959;49.418;8.728;2022-12-07T08:31:30;13.40;;;8.98;;
23561;SDS011;11959;49.418;8.728;2022-12-07T08:33:56;14.63;;;9.77;;
23561;SDS011;11959;49.418;8.728;2022-12-07T08:36:22;15.35;;;9.23;;
23561;SDS011;11959;49.418;8.728;2022-12-07T08:38:48;15.77;;;9.18;;
23561;SDS011;11959;49.418;8.728;2022-12-07T08:41:14;14.88;;;9.88;;
23561;SDS011;11959;49.418;8.728;2022-12-07T08:43:40;15.82;;;9.10;;
23561;SDS011;11959;49.418;8.728;2022-12-07T08:46:09;17.17;;;9.70;;
23561;SDS011;11959;49.418;8.728;2022-12-07T08:48:36;14.05;;;9.18;;
23561;SDS011;11959;49.418;8.728;2022-12-07T08:51:06;16.75;;;9.32;;
23561;SDS011;11959;49.418;8.728;2022-12-07T08:53:32;14.73;;;8.98;;
23561;SDS011;11959;49.418;8.728;2022-12-07T08:55:59;13.88;;;8.80;;
23561;SDS011;11959;49.418;8.728;2022-12-07T08:58:24;17.20;;;9.40;;
23561;SDS011;11959;49.418;8.728;2022-12-07T09:00:50;15.63;;;9.25;;
23561;SDS011;11959;49.418;8.728;2022-12-07T09:03:16;20.77;;;10.15;;
23561;SDS011;11959;49.418;8.728;2022-12-07T09:05:42;15.38;;;9.57;;
23561;SDS011;11959;49.418;8.728;2022-12-07T09:08:07;16.90;;;9.77;;
23561;SDS011;11959;49.418;8.728;2022-12-07T09:10:33;19.05;;;10.68;;
23561;SDS011;11959;49.418;8.728;2022-12-07T09:12:59;18.48;;;9.75;;
23561;SDS011;11959;49.418;8.728;2022-12-07T09:15:26;16.80;;;10.60;;
23561;SDS011;11959;49.418;8.728;2022-12-07T09:17:56;18.05;;;10.07;;
23561;SDS011;11959;49.418;8.728;2022-12-07T09:20:22;17.33;;;10.20;;
23561;SDS011;11959;49.418;8.728;2022-12-07T09:22:47;20.00;;;10.90;;
23561;SDS011;11959;49.418;8.728;2022-12-07T09:25:13;20.63;;;11.10;;
23561;SDS011;11959;49.418;8.728;2022-12-07T09:27:39;19.10;;;10.68;;
23561;SDS011;11959;49.418;8.728;2022-12-07T09:30:06;17.08;;;10.10;;
23561;SDS011;11959;49.418;8.728;2022-12-07T09:32:32;17.83;;;10.45;;
23561;SDS011;11959;49.418;8.728;2022-12-07T09:34:58;19.85;;;10.52;;
23561;SDS011;11959;49.418;8.728;2022-12-07T09:37:23;17.98;;;10.93;;
23561;SDS011;11959;49.418;8.728;2022-12-07T09:39:49;19.42;;;11.27;;
23561;SDS011;11959;49.418;8.728;2022-12-07T09:44:56;18.05;;;11.25;;
23561;SDS011;11959;49.418;8.728;2022-12-07T09:47:23;19.77;;;11.43;;
23561;SDS011;11959;49.418;8.728;2022-12-07T09:49:49;18.55;;;11.80;;
23561;SDS011;11959;49.418;8.728;2022-12-07T09:52:25;21.80;;;11.35;;
23561;SDS011;11959;49.418;8.728;2022-12-07T09:54:53;20.38;;;11.10;;
23561;SDS011;11959;49.418;8.728;2022-12-07T09:57:27;20.50;;;10.93;;
23561;SDS011;11959;49.418;8.728;2022-12-07T10:00:00;19.00;;;11.45;;
23561;SDS011;11959;49.418;8.728;2022-12-07T10:05:03;19.50;;;11.80;;
23561;SDS011;11959;49.418;8.728;2022-12-07T10:07:30;22.65;;;11.85;;
23561;SDS011;11959;49.418;8.728;2022-12-07T10:09:56;17.70;;;10.70;;
23561;SDS011;11959;49.418;8.728;2022-12-07T10:12:22;19.65;;;11.45;;
23561;SDS011;11959;49.418;8.728;2022-12-07T10:15:09;19.13;;;11.75;;
23561;SDS011;11959;49.418;8.728;2022-12-07T10:17:40;17.77;;;11.00;;
23561;SDS011;11959;49.418;8.728;2022-12-07T10:20:13;23.17;;;12.30;;
23561;SDS011;11959;49.418;8.728;2022-12-07T10:22:53;20.40;;;11.77;;
23561;SDS011;11959;49.418;8.728;2022-12-07T10:25:21;19.25;;;11.95;;
23561;SDS011;11959;49.418;8.728;2022-12-07T10:28:09;21.40;;;12.57;;
23561;SDS011;11959;49.418;8.728;2022-12-07T10:30:52;21.33;;;12.30;;
23561;SDS011;11959;49.418;8.728;2022-12-07T10:33:31;20.05;;;11.48;;
23561;SDS011;11959;49.418;8.728;2022-12-07T10:35:59;22.08;;;11.85;;
23561;SDS011;11959;49.418;8.728;2022-12-07T10:38:34;21.45;;;11.40;;
23561;SDS011;11959;49.418;8.728;2022-12-07T10:41:13;19.90;;;11.13;;
23561;SDS011;11959;49.418;8.728;2022-12-07T10:43:49;18.60;;;11.45;;
23561;SDS011;11959;49.418;8.728;2022-12-07T10:46:54;20.33;;;12.30;;
23561;SDS011;11959;49.418;8.728;2022-12-07T11:01:13;20.92;;;12.25;;
23561;SDS011;11959;49.418;8.728;2022-12-07T11:06:34;18.70;;;12.15;;
23561;SDS011;11959;49.418;8.728;2022-12-07T11:12:03;23.63;;;12.30;;
23561;SDS011;11959;49.418;8.728;2022-12-07T11:14:36;20.63;;;12.33;;
23561;SDS011;11959;49.418;8.728;2022-12-07T11:23:18;20.00;;;11.38;;
23561;SDS011;11959;49.418;8.728;2022-12-07T11:29:15;18.07;;;11.03;;
23561;SDS011;11959;49.418;8.728;2022-12-07T11:34:59;21.13;;;11.35;;
23561;SDS011;11959;49.418;8.728;2022-12-07T11:37:30;18.27;;;11.13;;
23561;SDS011;11959;49.418;8.728;2022-12-07T11:40:05;19.35;;;10.95;;
23561;SDS011;11959;49.418;8.728;2022-12-07T11:42:51;18.52;;;10.65;;
23561;SDS011;11959;49.418;8.728;2022-12-07T11:45:26;19.33;;;11.48;;
23561;SDS011;11959;49.418;8.728;2022-12-07T11:47:55;18.40;;;10.77;;
23561;SDS011;11959;49.418;8.728;2022-12-07T11:50:48;20.30;;;11.73;;
23561;SDS011;11959;49.418;8.728;2022-12-07T11:53:25;17.10;;;10.60;;
23561;SDS011;11959;49.418;8.728;2022-12-07T12:03:52;21.58;;;10.82;;
23561;SDS011;11959;49.418;8.728;2022-12-07T12:06:21;20.67;;;11.88;;
23561;SDS011;11959;49.418;8.728;2022-12-07T12:08:55;21.45;;;12.88;;
23561;SDS011;11959;49.418;8.728;2022-12-07T12:25:41;21.33;;;12.70;;
23561;SDS011;11959;49.418;8.728;2022-12-07T12:31:14;21.88;;;12.15;;
23561;SDS011;11959;49.418;8.728;2022-12-07T12:33:46;20.48;;;11.93;;
23561;SDS011;11959;49.418;8.728;2022-12-07T12:57:27;19.17;;;11.65;;
23561;SDS011;11959;49.418;8.728;2022-12-07T13:15:41;20.10;;;12.73;;
23561;SDS011;11959;49.418;8.728;2022-12-07T13:26:12;19.98;;;12.35;;
23561;SDS011;11959;49.418;8.728;2022-12-07T13:28:52;20.83;;;13.60;;
23561;SDS011;11959;49.418;8.728;2022-12-07T13:34:30;24.77;;;14.38;;
23561;SDS011;11959;49.418;8.728;2022-12-07T13:36:56;23.15;;;13.43;;
23561;SDS011;11959;49.418;8.728;2022-12-07T13:39:24;22.20;;;13.98;;
23561;SDS011;11959;49.418;8.728;2022-12-07T13:41:52;21.75;;;12.82;;
23561;SDS011;11959;49.418;8.728;2022-12-07T13:44:20;20.98;;;12.55;;
23561;SDS011;11959;49.418;8.728;2022-12-07T13:46:58;18.83;;;12.32;;
23561;SDS011;11959;49.418;8.728;2022-12-07T13:49:37;21.92;;;13.30;;
23561;SDS011;11959;49.418;8.728;2022-12-07T13:55:00;22.52;;;13.40;;
23561;SDS011;11959;49.418;8.728;2022-12-07T13:57:27;19.13;;;12.18;;
23561;SDS011;11959;49.418;8.728;2022-12-07T13:59:59;20.17;;;11.75;;
23561;SDS011;11959;49.418;8.728;2022-12-07T14:02:30;21.00;;;12.70;;
23561;SDS011;11959;49.418;8.728;2022-12-07T14:05:23;22.10;;;12.90;;
23561;SDS011;11959;49.418;8.728;2022-12-07T14:07:57;19.92;;;12.48;;
23561;SDS011;11959;49.418;8.728;2022-12-07T14:10:26;20.30;;;11.93;;
23561;SDS011;11959;49.418;8.728;2022-12-07T14:12:57;18.10;;;11.60;;
23561;SDS011;11959;49.418;8.728;2022-12-07T14:15:25;19.75;;;12.40;;
23561;SDS011;11959;49.418;8.728;2022-12-07T14:17:54;22.92;;;12.85;;
23561;SDS011;11959;49.418;8.728;2022-12-07T14:20:35;17.63;;;11.23;;
23561;SDS011;11959;49.418;8.728;2022-12-07T14:23:01;18.02;;;10.65;;
23561;SDS011;11959;49.418;8.728;2022-12-07T14:25:34;16.95;;;9.65;;
23561;SDS011;11959;49.418;8.728;2022-12-07T14:28:24;19.65;;;12.40;;
23561;SDS011;11959;49.418;8.728;2022-12-07T14:30:52;19.45;;;11.55;;
23561;SDS011;11959;49.418;8.728;2022-12-07T14:33:17;17.88;;;11.23;;
23561;SDS011;11959;49.418;8.728;2022-12-07T14:35:44;18.42;;;10.82;;
23561;SDS011;11959;49.418;8.728;2022-12-07T14:38:09;14.63;;;9.73;;
23561;SDS011;11959;49.418;8.728;2022-12-07T14:40:35;13.98;;;9.00;;
23561;SDS011;11959;49.418;8.728;2022-12-07T14:43:02;18.42;;;11.15;;
23561;SDS011;11959;49.418;8.728;2022-12-07T14:45:30;18.30;;;10.73;;
23561;SDS011;11959;49.418;8.728;2022-12-07T14:47:56;19.67;;;10.77;;
23561;SDS011;11959;49.418;8.728;2022-12-07T14:50:22;17.17;;;10.55;;
23561;SDS011;11959;49.418;8.728;2022-12-07T14:52:51;17.15;;;10.75;;
23561;SDS011;11959;49.418;8.728;2022-12-07T14:55:26;18.00;;;10.50;;
23561;SDS011;11959;49.418;8.728;2022-12-07T14:57:53;14.85;;;9.13;;
23561;SDS011;11959;49.418;8.728;2022-12-07T15:00:20;15.75;;;9.45;;
23561;SDS011;11959;49.418;8.728;2022-12-07T15:02:47;13.63;;;8.30;;
23561;SDS011;11959;49.418;8.728;2022-12-07T15:05:14;12.60;;;7.78;;
23561;SDS011;11959;49.418;8.728;2022-12-07T15:07:40;13.15;;;7.72;;
23561;SDS011;11959;49.418;8.728;2022-12-07T15:10:08;12.50;;;7.95;;
23561;SDS011;11959;49.418;8.728;2022-12-07T15:12:44;13.75;;;7.10;;
23561;SDS011;11959;49.418;8.728;2022-12-07T15:15:10;11.85;;;7.82;;
23561;SDS011;11959;49.418;8.728;2022-12-07T15:17:36;13.77;;;8.25;;
23561;SDS011;11959;49.418;8.728;2022-12-07T15:20:02;13.15;;;8.00;;
23561;SDS011;11959;49.418;8.728;2022-12-07T15:22:28;13.13;;;8.13;;
23561;SDS011;11959;49.418;8.728;2022-12-07T15:24:56;14.70;;;8.55;;
23561;SDS011;11959;49.418;8.728;2022-12-07T15:27:22;13.20;;;8.70;;
23561;SDS011;11959;49.418;8.728;2022-12-07T15:29:47;15.25;;;9.10;;
23561;SDS011;11959;49.418;8.728;2022-12-07T15:32:13;13.95;;;8.63;;
23561;SDS011;11959;49.418;8.728;2022-12-07T15:34:39;14.32;;;9.02;;
23561;SDS011;11959;49.418;8.728;2022-12-07T15:37:04;15.13;;;8.80;;
23561;SDS011;11959;49.418;8.728;2022-12-07T15:39:31;13.95;;;8.70;;
23561;SDS011;11959;49.418;8.728;2022-12-07T15:41:57;15.80;;;7.82;;
23561;SDS011;11959;49.418;8.728;2022-12-07T15:44:22;13.48;;;8.15;;
23561;SDS011;11959;49.418;8.728;2022-12-07T15:47:06;13.20;;;7.55;;
23561;SDS011;11959;49.418;8.728;2022-12-07T15:49:32;11.73;;;7.30;;
23561;SDS011;11959;49.418;8.728;2022-12-07T15:51:58;14.85;;;9.55;;
23561;SDS011;11959;49.418;8.728;2022-12-07T15:54:25;15.68;;;9.80;;
23561;SDS011;11959;49.418;8.728;2022-12-07T15:56:52;15.40;;;9.32;;
23561;SDS011;11959;49.418;8.728;2022-12-07T15:59:18;17.70;;;10.07;;
23561;SDS011;11959;49.418;8.728;2022-12-07T16:01:44;16.08;;;9.75;;
23561;SDS011;11959;49.418;8.728;2022-12-07T16:04:10;17.20;;;9.95;;
23561;SDS011;11959;49.418;8.728;2022-12-07T16:06:35;18.95;;;9.07;;
23561;SDS011;11959;49.418;8.728;2022-12-07T16:09:03;16.10;;;9.70;;
23561;SDS011;11959;49.418;8.728;2022-12-07T16:11:29;16.45;;;9.88;;
23561;SDS011;11959;49.418;8.728;2022-12-07T16:13:55;16.70;;;9.90;;
23561;SDS011;11959;49.418;8.728;2022-12-07T16:16:21;14.93;;;9.45;;
23561;SDS011;11959;49.418;8.728;2022-12-07T16:18:47;19.02;;;10.75;;
23561;SDS011;11959;49.418;8.728;2022-12-07T16:21:14;17.38;;;10.60;;
23561;SDS011;11959;49.418;8.728;2022-12-07T16:23:40;14.85;;;9.65;;
23561;SDS011;11959;49.418;8.728;2022-12-07T16:26:07;16.13;;;9.80;;
23561;SDS011;11959;49.418;8.728;2022-12-07T16:28:34;14.02;;;8.48;;
23561;SDS011;11959;49.418;8.728;2022-12-07T16:31:07;15.13;;;8.98;;
23561;SDS011;11959;49.418;8.728;2022-12-07T16:33:35;16.20;;;9.90;;
23561;SDS011;11959;49.418;8.728;2022-12-07T16:36:03;15.88;;;9.65;;
23561;SDS011;11959;49.418;8.728;2022-12-07T16:38:29;14.65;;;9.23;;
23561;SDS011;11959;49.418;8.728;2022-12-07T16:40:54;19.27;;;10.20;;
23561;SDS011;11959;49.418;8.728;2022-12-07T16:43:20;18.35;;;10.45;;
23561;SDS011;11959;49.418;8.728;2022-12-07T16:45:47;21.60;;;10.70;;
23561;SDS011;11959;49.418;8.728;2022-12-07T16:48:16;18.02;;;10.45;;
23561;SDS011;11959;49.418;8.728;2022-12-07T16:50:42;14.90;;;8.73;;
23561;SDS011;11959;49.418;8.728;2022-12-07T16:53:09;15.43;;;8.85;;
23561;SDS011;11959;49.418;8.728;2022-12-07T16:55:39;14.25;;;8.75;;
23561;SDS011;11959;49.418;8.728;2022-12-07T16:58:06;13.30;;;8.45;;
23561;SDS011;11959;49.418;8.728;2022-12-07T17:00:32;14.63;;;8.57;;
23561;SDS011;11959;49.418;8.728;2022-12-07T17:02:58;15.23;;;9.02;;
23561;SDS011;11959;49.418;8.728;2022-12-07T17:05:24;15.70;;;9.85;;